sensor_id;sensor_type;location;lat;lon;timestamp;P1;durP1;ratioP1;P2;durP2;ratioP2
53890;SDS011;41337;51.400;-2.342;2022-12-07T00:00:37;22.42;;;12.10;;
53890;SDS011;41337;51.400;-2.342;2022-12-07T00:05:38;19.63;;;11.23;;
53890;SDS011;41337;51.400;-2.342;2022-12-07T00:10:39;20.65;;;12.23;;
53890;SDS011;41337;51.400;-2.342;2022-12-07T00:15:40;20.13;;;11.75;;
53890;SDS011;41337;51.400;-2.342;2022-12-07T00:20:40;19.52;;;11.60;;
53890;SDS011;41337;51.400;-2.342;2022-12-07T00:25:41;22.55;;;12.18;;
53890;SDS011;41337;51.400;-2.342;2022-12-07T00:30:42;24.02;;;12.45;;
53890;SDS011;41337;51.400;-2.342;2022-12-07T00:35:43;22.63;;;11.48;;
53890;SDS011;41337;51.400;-2.342;2022-12-07T00:40:44;20.92;;;12.25;;
53890;SDS011;41337;51.400;-2.342;2022-12-07T00:45:53;29.45;;;12.90;;
53890;SDS011;41337;51.400;-2.342;2022-12-07T00:50:55;20.15;;;12.38;;
53890;SDS011;41337;51.400;-2.342;2022-12-07T00:55:56;25.08;;;12.05;;
53890;SDS011;41337;51.400;-2.342;2022-12-07T01:00:59;26.05;;;13.20;;
53890;SDS011;41337;51.400;-2.342;2022-12-07T01:06:04;27.13;;;13.35;;
53890;SDS011;41337;51.400;-2.342;2022-12-07T01:11:06;22.02;;;12.80;;
53890;SDS011;41337;51.400;-2.342;2022-12-07T01:16:13;23.23;;;12.40;;
53890;SDS011;41337;51.400;-2.342;2022-12-07T01:21:18;26.48;;;13.27;;
53890;SDS011;41337;51.400;-2.342;2022-12-07T01:26:24;24.08;;;12.88;;
53890;SDS011;41337;51.400;-2.342;2022-12-07T01:31:25;21.33;;;11.57;;
53890;SDS011;41337;51.400;-2.342;2022-12-07T01:36:45;24.13;;;13.45;;
53890;SDS011;41337;51.400;-2.342;2022-12-07T01:46:57;25.00;;;13.32;;
53890;SDS011;41337;51.400;-2.342;2022-12-07T01:52:14;23.27;;;12.55;;
53890;SDS011;41337;51.400;-2.342;2022-12-07T01:57:23;22.20;;;11.63;;
53890;SDS011;41337;51.400;-2.342;2022-12-07T02:02:25;24.13;;;12.60;;
53890;SDS011;41337;51.400;-2.342;2022-12-07T02:07:30;24.67;;;12.50;;
53890;SDS011;41337;51.400;-2.342;2022-12-07T02:12:36;31.40;;;13.25;;
53890;SDS011;41337;51.400;-2.342;2022-12-07T02:28:56;26.02;;;13.38;;
53890;SDS011;41337;51.400;-2.342;2022-12-07T02:34:21;31.65;;;15.52;;
53890;SDS011;41337;51.400;-2.342;2022-12-07T02:44:38;35.28;;;17.83;;
53890;SDS011;41337;51.400;-2.342;2022-12-07T02:49:39;39.70;;;18.30;;
53890;SDS011;41337;51.400;-2.342;2022-12-07T02:54:40;38.72;;;18.52;;
53890;SDS011;41337;51.400;-2.342;2022-12-07T03:21:18;33.28;;;16.95;;
53890;SDS011;41337;51.400;-2.342;2022-12-07T03:26:31;39.00;;;17.55;;
53890;SDS011;41337;51.400;-2.342;2022-12-07T03:31:41;37.17;;;16.67;;
53890;SDS011;41337;51.400;-2.342;2022-12-07T03:36:48;33.38;;;17.20;;
53890;SDS011;41337;51.400;-2.342;2022-12-07T03:41:55;31.77;;;14.90;;
53890;SDS011;41337;51.400;-2.342;2022-12-07T03:52:33;32.13;;;16.20;;
53890;SDS011;41337;51.400;-2.342;2022-12-07T03:57:47;32.42;;;15.88;;
53890;SDS011;41337;51.400;-2.342;2022-12-07T04:02:53;35.33;;;16.80;;
53890;SDS011;41337;51.400;-2.342;2022-12-07T04:07:56;43.00;;;17.23;;
53890;SDS011;41337;51.400;-2.342;2022-12-07T04:13:03;41.00;;;18.48;;
53890;SDS011;41337;51.400;-2.342;2022-12-07T04:18:04;42.63;;;18.50;;
53890;SDS011;41337;51.400;-2.342;2022-12-07T04:23:04;41.70;;;18.88;;
53890;SDS011;41337;51.400;-2.342;2022-12-07T04:28:05;36.60;;;16.80;;
53890;SDS011;41337;51.400;-2.342;2022-12-07T04:33:06;32.45;;;16.80;;
53890;SDS011;41337;51.400;-2.342;2022-12-07T04:38:08;34.17;;;16.63;;
53890;SDS011;41337;51.400;-2.342;2022-12-07T04:43:09;40.38;;;17.15;;
53890;SDS011;41337;51.400;-2.342;2022-12-07T04:48:10;27.95;;;14.68;;
53890;SDS011;41337;51.400;-2.342;2022-12-07T04:53:11;29.83;;;13.88;;
53890;SDS011;41337;51.400;-2.342;2022-12-07T04:58:12;34.00;;;15.88;;
53890;SDS011;41337;51.400;-2.342;2022-12-07T05:03:15;30.80;;;15.40;;
53890;SDS011;41337;51.400;-2.342;2022-12-07T05:08:19;28.08;;;15.18;;
53890;SDS011;41337;51.400;-2.342;2022-12-07T05:13:20;29.48;;;13.85;;
53890;SDS011;41337;51.400;-2.342;2022-12-07T05:18:21;30.40;;;14.93;;
53890;SDS011;41337;51.400;-2.342;2022-12-07T05:23:22;27.45;;;14.68;;
53890;SDS011;41337;51.400;-2.342;2022-12-07T05:28:23;28.25;;;14.70;;
53890;SDS011;41337;51.400;-2.342;2022-12-07T05:33:24;36.53;;;16.55;;
53890;SDS011;41337;51.400;-2.342;2022-12-07T05:38:25;35.53;;;15.75;;
53890;SDS011;41337;51.400;-2.342;2022-12-07T05:43:26;36.15;;;15.75;;
53890;SDS011;41337;51.400;-2.342;2022-12-07T05:48:27;40.65;;;16.00;;
53890;SDS011;41337;51.400;-2.342;2022-12-07T05:53:27;27.10;;;13.85;;
53890;SDS011;41337;51.400;-2.342;2022-12-07T05:58:28;34.20;;;14.23;;
53890;SDS011;41337;51.400;-2.342;2022-12-07T06:03:47;25.00;;;12.60;;
53890;SDS011;41337;51.400;-2.342;2022-12-07T06:08:48;29.90;;;14.18;;
53890;SDS011;41337;51.400;-2.342;2022-12-07T06:13:49;25.15;;;13.13;;
53890;SDS011;41337;51.400;-2.342;2022-12-07T06:18:50;26.70;;;13.57;;
53890;SDS011;41337;51.400;-2.342;2022-12-07T06:23:50;25.75;;;13.32;;
53890;SDS011;41337;51.400;-2.342;2022-12-07T06:28:51;29.10;;;12.55;;
53890;SDS011;41337;51.400;-2.342;2022-12-07T06:33:56;24.70;;;12.75;;
53890;SDS011;41337;51.400;-2.342;2022-12-07T06:39:01;26.85;;;13.07;;
53890;SDS011;41337;51.400;-2.342;2022-12-07T06:44:03;30.52;;;13.57;;
53890;SDS011;41337;51.400;-2.342;2022-12-07T06:49:04;27.75;;;13.07;;
53890;SDS011;41337;51.400;-2.342;2022-12-07T06:54:09;24.23;;;13.27;;
53890;SDS011;41337;51.400;-2.342;2022-12-07T06:59:14;33.17;;;15.15;;
53890;SDS011;41337;51.400;-2.342;2022-12-07T07:04:15;29.60;;;13.50;;
53890;SDS011;41337;51.400;-2.342;2022-12-07T07:09:16;26.92;;;14.25;;
53890;SDS011;41337;51.400;-2.342;2022-12-07T07:14:17;25.50;;;13.13;;
53890;SDS011;41337;51.400;-2.342;2022-12-07T07:19:19;31.30;;;13.70;;
53890;SDS011;41337;51.400;-2.342;2022-12-07T07:24:23;31.58;;;14.50;;
53890;SDS011;41337;51.400;-2.342;2022-12-07T07:29:27;32.13;;;13.32;;
53890;SDS011;41337;51.400;-2.342;2022-12-07T07:34:28;29.55;;;12.00;;
53890;SDS011;41337;51.400;-2.342;2022-12-07T07:39:29;28.08;;;11.73;;
53890;SDS011;41337;51.400;-2.342;2022-12-07T07:44:30;27.98;;;10.38;;
53890;SDS011;41337;51.400;-2.342;2022-12-07T07:49:31;32.15;;;13.48;;
53890;SDS011;41337;51.400;-2.342;2022-12-07T07:54:32;22.20;;;10.70;;
53890;SDS011;41337;51.400;-2.342;2022-12-07T07:59:33;25.08;;;10.85;;
53890;SDS011;41337;51.400;-2.342;2022-12-07T08:04:33;20.00;;;10.75;;
53890;SDS011;41337;51.400;-2.342;2022-12-07T08:09:36;20.02;;;10.85;;
53890;SDS011;41337;51.400;-2.342;2022-12-07T08:14:41;24.10;;;10.73;;
53890;SDS011;41337;51.400;-2.342;2022-12-07T08:19:42;20.00;;;10.88;;
53890;SDS011;41337;51.400;-2.342;2022-12-07T08:24:42;17.95;;;10.15;;
53890;SDS011;41337;51.400;-2.342;2022-12-07T08:29:43;17.77;;;8.70;;
53890;SDS011;41337;51.400;-2.342;2022-12-07T08:34:44;20.92;;;9.10;;
53890;SDS011;41337;51.400;-2.342;2022-12-07T08:39:45;25.30;;;10.70;;
53890;SDS011;41337;51.400;-2.342;2022-12-07T08:44:46;21.95;;;10.45;;
53890;SDS011;41337;51.400;-2.342;2022-12-07T08:49:47;23.25;;;11.85;;
53890;SDS011;41337;51.400;-2.342;2022-12-07T08:54:51;28.75;;;11.50;;
53890;SDS011;41337;51.400;-2.342;2022-12-07T08:59:52;35.00;;;10.32;;
53890;SDS011;41337;51.400;-2.342;2022-12-07T09:04:56;22.00;;;9.48;;
53890;SDS011;41337;51.400;-2.342;2022-12-07T09:09:59;18.60;;;8.60;;
53890;SDS011;41337;51.400;-2.342;2022-12-07T09:15:00;23.17;;;9.60;;
53890;SDS011;41337;51.400;-2.342;2022-12-07T09:20:02;25.75;;;10.95;;
53890;SDS011;41337;51.400;-2.342;2022-12-07T09:25:04;21.13;;;11.10;;
53890;SDS011;41337;51.400;-2.342;2022-12-07T09:30:05;30.75;;;9.75;;
53890;SDS011;41337;51.400;-2.342;2022-12-07T09:35:13;27.15;;;10.13;;
53890;SDS011;41337;51.400;-2.342;2022-12-07T09:40:14;18.30;;;8.68;;
53890;SDS011;41337;51.400;-2.342;2022-12-07T09:45:25;17.95;;;8.52;;
53890;SDS011;41337;51.400;-2.342;2022-12-07T09:50:51;29.10;;;12.18;;
53890;SDS011;41337;51.400;-2.342;2022-12-07T09:55:54;27.20;;;13.60;;
53890;SDS011;41337;51.400;-2.342;2022-12-07T10:01:05;33.03;;;14.65;;
53890;SDS011;41337;51.400;-2.342;2022-12-07T10:06:14;34.25;;;15.63;;
53890;SDS011;41337;51.400;-2.342;2022-12-07T10:11:15;33.50;;;15.90;;
53890;SDS011;41337;51.400;-2.342;2022-12-07T10:21:39;34.95;;;16.90;;
53890;SDS011;41337;51.400;-2.342;2022-12-07T10:27:01;38.10;;;18.23;;
53890;SDS011;41337;51.400;-2.342;2022-12-07T10:32:24;29.45;;;16.02;;
53890;SDS011;41337;51.400;-2.342;2022-12-07T10:37:28;29.67;;;16.73;;
53890;SDS011;41337;51.400;-2.342;2022-12-07T10:42:40;27.38;;;15.02;;
53890;SDS011;41337;51.400;-2.342;2022-12-07T11:04:07;32.33;;;13.30;;
53890;SDS011;41337;51.400;-2.342;2022-12-07T11:09:31;26.23;;;13.38;;
53890;SDS011;41337;51.400;-2.342;2022-12-07T11:14:48;26.33;;;14.27;;
53890;SDS011;41337;51.400;-2.342;2022-12-07T11:57:52;17.05;;;10.48;;
53890;SDS011;41337;51.400;-2.342;2022-12-07T12:03:31;13.98;;;7.45;;
53890;SDS011;41337;51.400;-2.342;2022-12-07T12:09:01;8.25;;;4.97;;
53890;SDS011;41337;51.400;-2.342;2022-12-07T12:20:03;13.32;;;5.47;;
53890;SDS011;41337;51.400;-2.342;2022-12-07T12:25:29;10.95;;;5.30;;
53890;SDS011;41337;51.400;-2.342;2022-12-07T12:36:44;11.50;;;6.68;;
53890;SDS011;41337;51.400;-2.342;2022-12-07T12:41:53;13.70;;;7.55;;
53890;SDS011;41337;51.400;-2.342;2022-12-07T12:47:37;15.02;;;7.47;;
53890;SDS011;41337;51.400;-2.342;2022-12-07T13:03:22;13.18;;;7.07;;
53890;SDS011;41337;51.400;-2.342;2022-12-07T13:08:29;15.73;;;7.50;;
53890;SDS011;41337;51.400;-2.342;2022-12-07T13:13:31;10.63;;;7.32;;
53890;SDS011;41337;51.400;-2.342;2022-12-07T13:39:32;13.32;;;6.28;;
53890;SDS011;41337;51.400;-2.342;2022-12-07T13:44:45;16.00;;;6.30;;
53890;SDS011;41337;51.400;-2.342;2022-12-07T13:49:50;13.70;;;7.50;;
53890;SDS011;41337;51.400;-2.342;2022-12-07T14:00:13;14.27;;;6.47;;
53890;SDS011;41337;51.400;-2.342;2022-12-07T14:05:25;14.77;;;7.15;;
53890;SDS011;41337;51.400;-2.342;2022-12-07T14:10:27;13.63;;;6.43;;
53890;SDS011;41337;51.400;-2.342;2022-12-07T14:15:35;14.73;;;5.45;;
53890;SDS011;41337;51.400;-2.342;2022-12-07T14:20:39;16.13;;;5.60;;
53890;SDS011;41337;51.400;-2.342;2022-12-07T14:25:45;10.88;;;5.38;;
53890;SDS011;41337;51.400;-2.342;2022-12-07T14:30:46;9.20;;;4.93;;
53890;SDS011;41337;51.400;-2.342;2022-12-07T14:35:47;12.50;;;4.43;;
53890;SDS011;41337;51.400;-2.342;2022-12-07T14:40:49;13.60;;;5.30;;
53890;SDS011;41337;51.400;-2.342;2022-12-07T14:45:52;8.80;;;5.32;;
53890;SDS011;41337;51.400;-2.342;2022-12-07T14:50:52;13.05;;;4.65;;
53890;SDS011;41337;51.400;-2.342;2022-12-07T14:55:54;10.40;;;5.28;;
53890;SDS011;41337;51.400;-2.342;2022-12-07T15:00:54;10.13;;;4.93;;
53890;SDS011;41337;51.400;-2.342;2022-12-07T15:05:55;16.70;;;5.97;;
53890;SDS011;41337;51.400;-2.342;2022-12-07T15:10:56;10.80;;;6.18;;
53890;SDS011;41337;51.400;-2.342;2022-12-07T15:15:57;15.77;;;5.80;;
53890;SDS011;41337;51.400;-2.342;2022-12-07T15:20:58;11.15;;;5.60;;
53890;SDS011;41337;51.400;-2.342;2022-12-07T15:25:58;11.43;;;5.55;;
53890;SDS011;41337;51.400;-2.342;2022-12-07T15:30:59;11.43;;;5.68;;
53890;SDS011;41337;51.400;-2.342;2022-12-07T15:36:00;10.50;;;5.38;;
53890;SDS011;41337;51.400;-2.342;2022-12-07T15:41:01;7.63;;;5.30;;
53890;SDS011;41337;51.400;-2.342;2022-12-07T15:46:02;11.02;;;5.85;;
53890;SDS011;41337;51.400;-2.342;2022-12-07T15:51:09;13.95;;;5.45;;
53890;SDS011;41337;51.400;-2.342;2022-12-07T15:56:10;8.50;;;4.80;;
53890;SDS011;41337;51.400;-2.342;2022-12-07T16:01:21;10.63;;;5.82;;
53890;SDS011;41337;51.400;-2.342;2022-12-07T16:06:22;12.45;;;5.53;;
53890;SDS011;41337;51.400;-2.342;2022-12-07T16:11:23;10.50;;;7.10;;
53890;SDS011;41337;51.400;-2.342;2022-12-07T16:16:24;11.20;;;6.53;;
53890;SDS011;41337;51.400;-2.342;2022-12-07T16:21:25;17.73;;;5.80;;
53890;SDS011;41337;51.400;-2.342;2022-12-07T16:26:25;15.73;;;7.15;;
53890;SDS011;41337;51.400;-2.342;2022-12-07T16:31:27;18.17;;;7.82;;
53890;SDS011;41337;51.400;-2.342;2022-12-07T16:36:28;21.85;;;7.97;;
53890;SDS011;41337;51.400;-2.342;2022-12-07T16:41:29;22.40;;;8.95;;
53890;SDS011;41337;51.400;-2.342;2022-12-07T16:46:34;15.52;;;8.45;;
53890;SDS011;41337;51.400;-2.342;2022-12-07T16:51:36;21.05;;;8.93;;
53890;SDS011;41337;51.400;-2.342;2022-12-07T16:56:37;26.98;;;11.43;;
53890;SDS011;41337;51.400;-2.342;2022-12-07T17:01:38;20.63;;;10.85;;
53890;SDS011;41337;51.400;-2.342;2022-12-07T17:06:39;16.92;;;9.45;;
53890;SDS011;41337;51.400;-2.342;2022-12-07T17:11:42;16.80;;;9.20;;
53890;SDS011;41337;51.400;-2.342;2022-12-07T17:16:47;17.75;;;8.90;;
53890;SDS011;41337;51.400;-2.342;2022-12-07T17:21:48;21.80;;;8.98;;
53890;SDS011;41337;51.400;-2.342;2022-12-07T17:26:49;15.75;;;8.52;;
53890;SDS011;41337;51.400;-2.342;2022-12-07T17:31:50;26.40;;;12.57;;
53890;SDS011;41337;51.400;-2.342;2022-12-07T17:36:51;27.50;;;11.35;;
53890;SDS011;41337;51.400;-2.342;2022-12-07T17:41:54;22.05;;;11.27;;
53890;SDS011;41337;51.400;-2.342;2022-12-07T17:47:14;21.40;;;11.40;;
53890;SDS011;41337;51.400;-2.342;2022-12-07T17:57:57;21.55;;;10.38;;
53890;SDS011;41337;51.400;-2.342;2022-12-07T18:02:58;22.65;;;10.88;;
53890;SDS011;41337;51.400;-2.342;2022-12-07T18:07:59;26.55;;;9.88;;
53890;SDS011;41337;51.400;-2.342;2022-12-07T18:13:00;35.55;;;19.13;;
53890;SDS011;41337;51.400;-2.342;2022-12-07T18:18:19;19.52;;;10.45;;
53890;SDS011;41337;51.400;-2.342;2022-12-07T18:23:20;23.50;;;10.32;;
53890;SDS011;41337;51.400;-2.342;2022-12-07T18:28:21;21.92;;;9.80;;
53890;SDS011;41337;51.400;-2.342;2022-12-07T18:33:22;23.00;;;11.57;;
53890;SDS011;41337;51.400;-2.342;2022-12-07T18:38:23;34.95;;;16.00;;
53890;SDS011;41337;51.400;-2.342;2022-12-07T18:43:23;49.58;;;21.40;;
53890;SDS011;41337;51.400;-2.342;2022-12-07T18:48:24;24.08;;;10.40;;
53890;SDS011;41337;51.400;-2.342;2022-12-07T18:53:25;14.27;;;8.80;;
53890;SDS011;41337;51.400;-2.342;2022-12-07T18:58:26;20.95;;;11.05;;
53890;SDS011;41337;51.400;-2.342;2022-12-07T19:03:27;23.35;;;10.73;;
53890;SDS011;41337;51.400;-2.342;2022-12-07T19:08:28;18.08;;;9.40;;
53890;SDS011;41337;51.400;-2.342;2022-12-07T19:13:29;25.58;;;12.23;;
53890;SDS011;41337;51.400;-2.342;2022-12-07T19:18:29;30.75;;;12.07;;
53890;SDS011;41337;51.400;-2.342;2022-12-07T19:23:30;25.73;;;13.27;;
53890;SDS011;41337;51.400;-2.342;2022-12-07T19:28:31;26.75;;;12.63;;
53890;SDS011;41337;51.400;-2.342;2022-12-07T19:33:32;26.02;;;12.82;;
53890;SDS011;41337;51.400;-2.342;2022-12-07T19:38:34;27.05;;;12.55;;
53890;SDS011;41337;51.400;-2.342;2022-12-07T19:43:35;28.60;;;13.25;;
53890;SDS011;41337;51.400;-2.342;2022-12-07T19:48:36;42.80;;;21.17;;
53890;SDS011;41337;51.400;-2.342;2022-12-07T19:53:36;34.83;;;17.48;;
53890;SDS011;41337;51.400;-2.342;2022-12-07T19:58:37;27.80;;;15.68;;
53890;SDS011;41337;51.400;-2.342;2022-12-07T20:03:38;26.58;;;14.45;;
53890;SDS011;41337;51.400;-2.342;2022-12-07T20:08:40;39.55;;;24.85;;
53890;SDS011;41337;51.400;-2.342;2022-12-07T20:13:47;30.40;;;14.63;;
53890;SDS011;41337;51.400;-2.342;2022-12-07T20:18:48;28.55;;;13.98;;
53890;SDS011;41337;51.400;-2.342;2022-12-07T20:23:49;29.27;;;14.18;;
53890;SDS011;41337;51.400;-2.342;2022-12-07T20:28:50;39.08;;;21.40;;
53890;SDS011;41337;51.400;-2.342;2022-12-07T20:33:51;27.73;;;17.27;;
53890;SDS011;41337;51.400;-2.342;2022-12-07T20:38:52;27.13;;;15.15;;
53890;SDS011;41337;51.400;-2.342;2022-12-07T20:43:53;26.90;;;12.32;;
53890;SDS011;41337;51.400;-2.342;2022-12-07T20:48:56;25.83;;;13.45;;
53890;SDS011;41337;51.400;-2.342;2022-12-07T20:54:00;24.15;;;14.10;;
53890;SDS011;41337;51.400;-2.342;2022-12-07T20:59:02;23.02;;;13.45;;
53890;SDS011;41337;51.400;-2.342;2022-12-07T21:04:05;18.10;;;11.52;;
53890;SDS011;41337;51.400;-2.342;2022-12-07T21:09:06;16.55;;;9.10;;
53890;SDS011;41337;51.400;-2.342;2022-12-07T21:14:12;18.17;;;9.02;;
53890;SDS011;41337;51.400;-2.342;2022-12-07T21:19:15;20.30;;;8.90;;
53890;SDS011;41337;51.400;-2.342;2022-12-07T21:24:16;14.77;;;9.27;;
53890;SDS011;41337;51.400;-2.342;2022-12-07T21:29:17;17.30;;;9.95;;
53890;SDS011;41337;51.400;-2.342;2022-12-07T21:34:18;24.20;;;10.20;;
53890;SDS011;41337;51.400;-2.342;2022-12-07T21:39:19;18.75;;;9.50;;
53890;SDS011;41337;51.400;-2.342;2022-12-07T21:44:20;21.23;;;9.82;;
53890;SDS011;41337;51.400;-2.342;2022-12-07T21:49:20;21.70;;;10.30;;
53890;SDS011;41337;51.400;-2.342;2022-12-07T21:54:21;23.15;;;10.75;;
53890;SDS011;41337;51.400;-2.342;2022-12-07T21:59:22;26.98;;;11.93;;
53890;SDS011;41337;51.400;-2.342;2022-12-07T22:04:24;19.02;;;10.43;;
53890;SDS011;41337;51.400;-2.342;2022-12-07T22:09:35;23.50;;;10.60;;
53890;SDS011;41337;51.400;-2.342;2022-12-07T22:14:42;15.57;;;9.68;;
53890;SDS011;41337;51.400;-2.342;2022-12-07T22:20:01;21.17;;;9.70;;
53890;SDS011;41337;51.400;-2.342;2022-12-07T22:25:03;21.25;;;11.57;;
53890;SDS011;41337;51.400;-2.342;2022-12-07T22:30:11;18.40;;;10.38;;
53890;SDS011;41337;51.400;-2.342;2022-12-07T22:35:12;25.25;;;10.85;;
53890;SDS011;41337;51.400;-2.342;2022-12-07T22:40:13;54.33;;;21.48;;
53890;SDS011;41337;51.400;-2.342;2022-12-07T22:45:15;56.50;;;22.77;;
53890;SDS011;41337;51.400;-2.342;2022-12-07T22:50:17;63.63;;;24.50;;
53890;SDS011;41337;51.400;-2.342;2022-12-07T22:55:24;43.97;;;19.23;;
53890;SDS011;41337;51.400;-2.342;2022-12-07T23:00:25;37.28;;;16.73;;
53890;SDS011;41337;51.400;-2.342;2022-12-07T23:05:25;32.85;;;15.93;;
53890;SDS011;41337;51.400;-2.342;2022-12-07T23:10:26;36.10;;;15.98;;
53890;SDS011;41337;51.400;-2.342;2022-12-07T23:15:27;71.30;;;28.15;;
53890;SDS011;41337;51.400;-2.342;2022-12-07T23:20:28;49.33;;;21.40;;
53890;SDS011;41337;51.400;-2.342;2022-12-07T23:25:29;41.08;;;17.73;;
53890;SDS011;41337;51.400;-2.342;2022-12-07T23:30:32;36.75;;;16.67;;
53890;SDS011;41337;51.400;-2.342;2022-12-07T23:35:38;34.90;;;15.80;;
53890;SDS011;41337;51.400;-2.342;2022-12-07T23:40:39;36.17;;;17.05;;
53890;SDS011;41337;51.400;-2.342;2022-12-07T23:45:43;36.30;;;14.15;;
53890;SDS011;41337;51.400;-2.342;2022-12-07T23:50:50;21.95;;;11.05;;
53890;SDS011;41337;51.400;-2.342;2022-12-07T23:55:51;20.70;;;10.98;;
